Time;durP1;ratioP1;P1;durP2;ratioP2;P2;SDS_P1;SDS_P2;PMS_P1;PMS_P2;Temp;Humidity;BMP_temperature;BMP_pressure;BME280_temperature;BME280_humidity;BME280_pressure;Samples;Min_cycle;Max_cycle;Signal;HPM_P1;HPM_P2
2022/06/05 00:00:15;;;;;;;8.73;7.82;;;20.20;99.90;;;;;;5111779;28;20169;-58
2022/06/05 00:02:58;;;;;;;6.50;5.95;;;20.20;99.90;;;;;;5076306;28;20180;-57
2022/06/05 00:05:43;;;;;;;6.00;5.43;;;20.20;99.90;;;;;;5100944;28;20169;-57
2022/06/05 00:08:30;;;;;;;6.13;5.53;;;20.30;99.90;;;;;;5111911;28;20164;-58
2022/06/05 00:10:58;;;;;;;8.63;5.68;;;20.40;99.90;;;;;;5109193;28;20235;-57
2022/06/05 00:13:39;;;;;;;6.63;5.35;;;20.30;99.90;;;;;;5091493;28;20246;-58
2022/06/05 00:16:06;;;;;;;8.18;5.20;;;20.40;99.90;;;;;;5092613;28;20169;-58
2022/06/05 00:18:34;;;;;;;5.35;4.85;;;20.40;99.90;;;;;;5107893;28;20175;-58
2022/06/05 00:21:00;;;;;;;6.00;4.57;;;20.40;99.90;;;;;;5102991;28;20259;-58
2022/06/05 00:23:26;;;;;;;6.30;5.07;;;20.40;99.90;;;;;;5106630;28;20248;-58
2022/06/05 00:26:01;;;;;;;6.25;5.65;;;20.40;99.90;;;;;;5098660;28;20548;-58
2022/06/05 00:28:55;;;;;;;5.97;4.50;;;20.40;99.90;;;;;;5111622;28;20156;-58
2022/06/05 00:31:58;;;;;;;5.43;4.93;;;20.40;99.90;;;;;;5087685;28;20238;-58
2022/06/05 00:34:23;;;;;;;5.22;4.72;;;20.40;99.90;;;;;;5109924;28;20192;-58
2022/06/05 00:37:24;;;;;;;5.50;4.90;;;20.30;99.90;;;;;;5099057;28;20176;-58
2022/06/05 00:39:59;;;;;;;5.28;4.78;;;20.30;99.90;;;;;;5095635;28;20197;-58
2022/06/05 00:42:28;;;;;;;5.20;4.50;;;20.30;99.90;;;;;;5109258;28;20176;-58
2022/06/05 00:44:57;;;;;;;6.00;5.18;;;20.30;99.90;;;;;;5115357;28;20173;-58
2022/06/05 00:47:26;;;;;;;6.80;5.75;;;20.30;99.90;;;;;;5098942;28;20264;-58
2022/06/05 00:50:16;;;;;;;8.00;5.25;;;20.30;99.90;;;;;;5115498;28;20660;-58
2022/06/05 00:52:47;;;;;;;5.75;5.22;;;20.20;99.90;;;;;;5110845;28;20217;-58
2022/06/05 00:55:14;;;;;;;6.15;4.80;;;20.20;99.90;;;;;;5095072;28;20169;-58
2022/06/05 00:57:40;;;;;;;7.82;5.40;;;20.30;99.90;;;;;;5115075;28;20165;-58
2022/06/05 01:00:20;;;;;;;5.45;4.95;;;20.20;99.90;;;;;;5115148;28;20225;-58
2022/06/05 01:02:50;;;;;;;5.20;4.80;;;20.10;99.90;;;;;;5115580;28;20251;-58
2022/06/05 01:05:18;;;;;;;5.40;5.00;;;20.20;99.90;;;;;;5111500;28;20531;-58
2022/06/05 01:07:43;;;;;;;5.65;5.07;;;20.10;99.90;;;;;;5090578;28;20174;-58
2022/06/05 01:10:10;;;;;;;5.95;5.35;;;20.10;99.90;;;;;;5104458;28;20230;-58
2022/06/05 01:12:49;;;;;;;8.32;5.50;;;20.00;99.90;;;;;;5115559;28;20248;-58
2022/06/05 01:15:21;;;;;;;6.38;5.85;;;20.00;99.90;;;;;;5108637;28;20169;-58
2022/06/05 01:18:26;;;;;;;6.05;5.43;;;19.90;99.90;;;;;;5075200;28;20552;-58
2022/06/05 01:21:09;;;;;;;5.63;5.03;;;19.90;99.90;;;;;;5062648;28;20177;-58
2022/06/05 01:24:00;;;;;;;5.65;5.10;;;19.90;99.90;;;;;;5098004;28;20722;-58
2022/06/05 01:26:40;;;;;;;5.97;5.15;;;19.90;99.90;;;;;;5106033;28;20177;-59
2022/06/05 01:29:11;;;;;;;5.55;5.00;;;19.80;99.90;;;;;;5094994;28;20177;-58
2022/06/05 01:31:56;;;;;;;5.85;5.35;;;19.80;99.90;;;;;;5101028;28;20272;-58
2022/06/05 01:34:47;;;;;;;5.88;5.20;;;19.90;99.90;;;;;;5106602;28;20161;-58
2022/06/05 01:37:20;;;;;;;5.60;5.10;;;19.80;99.90;;;;;;5097726;28;20268;-58
2022/06/05 01:40:17;;;;;;;5.75;5.25;;;19.80;99.90;;;;;;5076638;28;20205;-58
2022/06/05 01:42:55;;;;;;;5.60;5.20;;;19.70;99.90;;;;;;5101326;28;20176;-58
2022/06/05 01:45:29;;;;;;;5.35;4.85;;;19.70;99.90;;;;;;5082840;28;20182;-58
2022/06/05 01:47:56;;;;;;;6.47;5.10;;;19.70;99.90;;;;;;5091991;28;20204;-58
2022/06/05 01:50:39;;;;;;;5.35;4.85;;;19.70;99.90;;;;;;5113000;28;20744;-58
2022/06/05 01:53:13;;;;;;;5.43;5.03;;;19.60;99.90;;;;;;5114049;28;20302;-58
2022/06/05 01:55:51;;;;;;;5.38;4.88;;;19.60;99.90;;;;;;5095823;28;20165;-58
2022/06/05 01:58:21;;;;;;;5.28;4.88;;;19.60;99.90;;;;;;5104975;28;20172;-58
2022/06/05 02:00:51;;;;;;;5.88;5.03;;;19.60;99.90;;;;;;5095972;28;20634;-58
2022/06/05 02:03:25;;;;;;;6.00;5.40;;;19.50;99.90;;;;;;5094523;28;20181;-58
2022/06/05 02:06:02;;;;;;;8.25;6.88;;;19.50;99.90;;;;;;5094143;28;20161;-58
2022/06/05 02:08:37;;;;;;;6.55;4.88;;;19.50;99.90;;;;;;5105981;28;20173;-58
2022/06/05 02:11:30;;;;;;;18.95;12.68;;;19.40;99.90;;;;;;5112851;28;20741;-58
2022/06/05 02:14:01;;;;;;;8.95;6.25;;;19.50;99.90;;;;;;5096248;28;20585;-58
2022/06/05 02:16:29;;;;;;;8.73;6.22;;;19.40;99.90;;;;;;5114523;28;20172;-58
2022/06/05 02:18:59;;;;;;;8.30;6.68;;;19.40;99.90;;;;;;5098326;28;20634;-58
2022/06/05 02:21:26;;;;;;;11.05;7.72;;;19.40;99.90;;;;;;5076718;28;20161;-58
2022/06/05 02:23:51;;;;;;;11.43;6.47;;;19.30;99.90;;;;;;5114542;28;20556;-58
2022/06/05 02:26:17;;;;;;;16.08;10.43;;;19.20;99.90;;;;;;5111815;28;20173;-59
2022/06/05 02:28:43;;;;;;;19.15;12.38;;;19.20;99.90;;;;;;5093873;28;20184;-59
2022/06/05 02:31:32;;;;;;;9.50;7.55;;;19.10;99.90;;;;;;5093647;28;20204;-59
2022/06/05 02:34:42;;;;;;;13.25;8.88;;;19.00;99.90;;;;;;5073487;28;20189;-58
2022/06/05 02:37:16;;;;;;;6.40;5.80;;;19.00;99.90;;;;;;5044983;28;20173;-58
2022/06/05 02:39:42;;;;;;;6.03;5.43;;;19.00;99.90;;;;;;5107567;28;20211;-58
2022/06/05 02:42:27;;;;;;;12.57;8.80;;;18.90;99.90;;;;;;5100203;28;20200;-58
2022/06/05 02:45:07;;;;;;;12.57;8.43;;;18.90;99.90;;;;;;5114049;28;20166;-59
2022/06/05 02:48:08;;;;;;;7.50;5.93;;;18.80;99.90;;;;;;5114141;28;20646;-59
2022/06/05 02:51:00;;;;;;;6.32;5.72;;;18.80;99.90;;;;;;5111984;28;20203;-58
2022/06/05 02:53:54;;;;;;;5.70;5.10;;;18.90;99.90;;;;;;5096377;28;20220;-59
2022/06/05 02:56:26;;;;;;;5.70;5.10;;;18.80;99.90;;;;;;5092597;28;20173;-58
2022/06/05 02:58:54;;;;;;;11.63;8.98;;;18.80;99.90;;;;;;5091866;28;20174;-59
2022/06/05 03:04:07;;;;;;;10.25;7.55;;;18.80;99.90;;;;;;5092704;28;20172;-58
2022/06/05 03:06:33;;;;;;;8.05;5.90;;;18.80;99.90;;;;;;5092986;28;20552;-58
2022/06/05 03:08:59;;;;;;;6.72;5.35;;;18.70;99.90;;;;;;5092836;28;20157;-59
2022/06/05 03:11:25;;;;;;;10.13;6.60;;;18.80;99.90;;;;;;5092430;28;20231;-59
2022/06/05 03:13:51;;;;;;;7.95;6.05;;;18.80;99.90;;;;;;5106005;28;20180;-59
2022/06/05 03:16:17;;;;;;;6.28;5.68;;;18.80;99.90;;;;;;5104620;28;20230;-58
2022/06/05 03:18:43;;;;;;;7.57;5.60;;;18.80;99.90;;;;;;5108004;28;20196;-57
2022/06/05 03:21:08;;;;;;;6.47;5.63;;;18.80;99.90;;;;;;5112705;28;20200;-57
2022/06/05 03:23:34;;;;;;;6.32;5.72;;;18.90;99.90;;;;;;5107895;28;20170;-57
2022/06/05 03:26:00;;;;;;;15.07;10.23;;;18.80;99.90;;;;;;5092576;28;20222;-57
2022/06/05 03:28:26;;;;;;;9.43;8.43;;;18.90;99.90;;;;;;5104436;28;20689;-58
2022/06/05 03:30:51;;;;;;;8.85;6.88;;;18.90;99.90;;;;;;5112450;28;20291;-57
2022/06/05 03:33:18;;;;;;;8.80;6.20;;;18.90;99.90;;;;;;5110808;28;20172;-58
2022/06/05 03:35:45;;;;;;;7.57;6.63;;;18.90;99.90;;;;;;5112032;28;20172;-57
2022/06/05 03:38:12;;;;;;;10.70;7.70;;;19.00;99.90;;;;;;5112554;28;20533;-57
2022/06/05 03:40:43;;;;;;;14.45;10.02;;;19.00;99.90;;;;;;5112247;28;20161;-57
2022/06/05 03:43:09;;;;;;;6.25;5.28;;;19.00;99.90;;;;;;5097369;28;20169;-58
2022/06/05 03:45:35;;;;;;;6.00;5.35;;;19.00;99.90;;;;;;5093053;28;20184;-56
2022/06/05 03:48:01;;;;;;;6.63;5.28;;;19.10;99.90;;;;;;5092341;28;20169;-56
2022/06/05 03:50:27;;;;;;;7.43;5.70;;;19.00;99.90;;;;;;5092943;28;20737;-57
2022/06/05 03:52:52;;;;;;;9.15;6.47;;;19.10;99.90;;;;;;5091650;28;20248;-57
2022/06/05 03:55:21;;;;;;;11.90;7.55;;;19.10;99.90;;;;;;5091833;28;20165;-56
2022/06/05 03:57:47;;;;;;;19.95;11.32;;;19.10;99.90;;;;;;5092960;28;20272;-57
2022/06/05 04:00:14;;;;;;;12.70;7.97;;;19.20;99.90;;;;;;5094811;28;20657;-57
2022/06/05 04:02:40;;;;;;;14.88;7.47;;;19.20;99.90;;;;;;5091526;28;20161;-58
2022/06/05 04:05:08;;;;;;;11.73;7.35;;;19.30;99.90;;;;;;5101433;28;20255;-59
2022/06/05 04:07:33;;;;;;;6.78;4.93;;;19.30;99.90;;;;;;5102178;28;20165;-56
2022/06/05 04:09:59;;;;;;;5.68;5.18;;;19.30;99.90;;;;;;5092278;28;20300;-56
2022/06/05 04:12:25;;;;;;;5.60;4.93;;;19.30;99.90;;;;;;5101147;28;20222;-56
2022/06/05 04:14:50;;;;;;;6.13;5.53;;;19.30;99.90;;;;;;5097206;28;20195;-56
2022/06/05 04:17:16;;;;;;;5.53;5.03;;;19.40;99.90;;;;;;5101169;28;20216;-56
2022/06/05 04:19:42;;;;;;;8.32;5.18;;;19.40;99.90;;;;;;5091348;28;20697;-56
2022/06/05 04:22:08;;;;;;;7.30;6.18;;;19.40;99.90;;;;;;5091298;28;20165;-56
2022/06/05 04:24:34;;;;;;;9.55;6.25;;;19.40;99.90;;;;;;5092483;28;20693;-56
2022/06/05 04:27:00;;;;;;;7.18;5.70;;;19.40;99.90;;;;;;5092700;28;20173;-57
2022/06/05 04:29:26;;;;;;;6.90;5.10;;;19.40;99.90;;;;;;5104894;28;20593;-56
2022/06/05 04:31:52;;;;;;;4.80;4.40;;;19.40;99.90;;;;;;5102308;28;20199;-57
2022/06/05 04:34:20;;;;;;;6.75;4.70;;;19.40;99.90;;;;;;5091232;28;20656;-56
2022/06/05 04:36:46;;;;;;;9.02;6.70;;;19.50;99.90;;;;;;5091539;28;20544;-56
2022/06/05 04:39:13;;;;;;;9.63;5.88;;;19.50;99.90;;;;;;5095326;28;20173;-56
2022/06/05 04:41:39;;;;;;;9.95;6.97;;;19.50;99.90;;;;;;5099070;28;20165;-56
2022/06/05 04:44:07;;;;;;;6.95;5.38;;;19.50;99.90;;;;;;5109671;28;20184;-56
2022/06/05 04:46:34;;;;;;;5.00;4.60;;;19.60;99.90;;;;;;5110888;28;20242;-56
2022/06/05 04:48:59;;;;;;;7.85;5.57;;;19.60;99.90;;;;;;5099863;28;20173;-55
2022/06/05 04:51:25;;;;;;;5.55;5.05;;;19.60;99.90;;;;;;5104508;28;20211;-54
2022/06/05 04:53:53;;;;;;;6.93;4.80;;;19.50;99.90;;;;;;5098481;28;20631;-58
2022/06/05 04:56:22;;;;;;;5.95;4.75;;;19.50;99.90;;;;;;5097355;28;20233;-57
2022/06/05 04:58:48;;;;;;;6.53;4.97;;;19.50;99.90;;;;;;5095331;28;20516;-56
2022/06/05 05:01:28;;;;;;;5.30;4.90;;;19.40;99.90;;;;;;5108105;28;20175;-57
2022/06/05 05:03:56;;;;;;;5.47;4.95;;;19.40;99.90;;;;;;5109301;28;20175;-56
2022/06/05 05:06:22;;;;;;;5.20;4.70;;;19.40;99.90;;;;;;5098724;28;20219;-56
2022/06/05 05:08:48;;;;;;;5.70;5.20;;;19.40;99.90;;;;;;5077046;28;20172;-56
2022/06/05 05:11:15;;;;;;;5.90;4.95;;;19.40;99.90;;;;;;5105033;28;20569;-56
2022/06/05 05:13:41;;;;;;;16.05;9.48;;;19.40;99.90;;;;;;5106675;28;20189;-56
2022/06/05 05:16:07;;;;;;;11.73;7.43;;;19.50;99.90;;;;;;5091653;28;20587;-56
2022/06/05 05:18:33;;;;;;;14.75;6.85;;;19.50;99.90;;;;;;5094596;28;20177;-57
2022/06/05 05:21:10;;;;;;;9.43;6.90;;;19.50;99.90;;;;;;5108323;28;20272;-58
2022/06/05 05:23:39;;;;;;;8.98;6.30;;;19.60;99.90;;;;;;5097916;28;20165;-57
2022/06/05 05:26:11;;;;;;;7.63;5.43;;;19.60;99.90;;;;;;5076276;28;20235;-58
2022/06/05 05:28:37;;;;;;;16.38;8.88;;;19.60;99.90;;;;;;5082835;28;20177;-59
2022/06/05 05:31:07;;;;;;;11.10;5.97;;;19.60;99.90;;;;;;5100059;28;20215;-58
2022/06/05 05:33:33;;;;;;;11.48;6.07;;;19.70;99.90;;;;;;5095219;28;20649;-58
2022/06/05 05:35:58;;;;;;;8.07;6.03;;;19.70;99.90;;;;;;5095192;28;20173;-59
2022/06/05 05:38:24;;;;;;;6.20;5.55;;;19.70;99.90;;;;;;5093979;28;20207;-59
2022/06/05 05:43:33;;;;;;;7.75;5.78;;;19.60;99.90;;;;;;5094783;28;20171;-58
2022/06/05 05:45:59;;;;;;;7.45;5.50;;;19.70;99.90;;;;;;5076958;28;20181;-59
2022/06/05 05:48:25;;;;;;;8.07;5.55;;;19.70;99.90;;;;;;5094593;28;20173;-58
2022/06/05 05:50:50;;;;;;;7.40;5.38;;;19.70;99.90;;;;;;5094420;28;20666;-59
2022/06/05 05:53:16;;;;;;;5.10;4.70;;;19.70;99.90;;;;;;5094321;28;20215;-59
2022/06/05 05:55:42;;;;;;;5.68;4.88;;;19.70;99.90;;;;;;5094548;28;20221;-58
2022/06/05 05:58:08;;;;;;;5.72;4.97;;;19.80;99.90;;;;;;5095012;28;20259;-58
2022/06/05 06:00:34;;;;;;;8.63;6.65;;;19.80;99.90;;;;;;5094379;28;20200;-57
2022/06/05 06:02:59;;;;;;;6.22;5.63;;;19.70;99.90;;;;;;5094957;28;20188;-57
2022/06/05 06:05:25;;;;;;;5.47;4.95;;;19.80;99.90;;;;;;5094364;28;20165;-57
2022/06/05 06:07:51;;;;;;;7.72;5.07;;;19.80;99.90;;;;;;5094704;28;20642;-58
2022/06/05 06:10:16;;;;;;;5.78;5.18;;;19.90;99.90;;;;;;5094252;28;20224;-57
2022/06/05 06:12:42;;;;;;;7.30;5.55;;;19.90;99.90;;;;;;5094259;28;20260;-57
2022/06/05 06:15:08;;;;;;;12.40;5.22;;;19.90;99.90;;;;;;5094166;28;20214;-57
2022/06/05 06:17:34;;;;;;;5.82;5.32;;;20.00;99.90;;;;;;5094108;28;20164;-57
2022/06/05 06:20:00;;;;;;;5.70;5.20;;;20.10;99.90;;;;;;5076278;28;20165;-58
2022/06/05 06:22:25;;;;;;;5.32;4.63;;;19.90;99.90;;;;;;5094285;28;20165;-58
2022/06/05 06:24:52;;;;;;;6.40;5.65;;;20.00;99.90;;;;;;5093976;28;20674;-57
2022/06/05 06:27:17;;;;;;;6.63;4.85;;;20.10;99.90;;;;;;5094194;28;20230;-58
2022/06/05 06:29:43;;;;;;;6.18;4.93;;;20.10;99.90;;;;;;5093827;28;20166;-57
2022/06/05 06:32:09;;;;;;;4.95;4.55;;;20.20;99.90;;;;;;5075774;28;20176;-57
2022/06/05 06:34:35;;;;;;;5.40;4.88;;;20.20;99.90;;;;;;5092877;28;20169;-57
2022/06/05 06:37:00;;;;;;;6.15;4.80;;;20.20;99.90;;;;;;5094032;28;20177;-57
2022/06/05 06:39:28;;;;;;;5.60;5.00;;;20.30;99.90;;;;;;5093677;28;20658;-57
2022/06/05 06:41:54;;;;;;;5.50;4.88;;;20.40;99.90;;;;;;5093658;28;20157;-57
2022/06/05 06:44:20;;;;;;;5.80;5.30;;;20.30;99.90;;;;;;5093498;28;20161;-57
2022/06/05 06:46:45;;;;;;;6.50;5.75;;;20.40;99.90;;;;;;5093495;28;20161;-57
2022/06/05 06:49:11;;;;;;;5.53;5.13;;;20.40;99.90;;;;;;5093526;28;20166;-58
2022/06/05 06:51:37;;;;;;;6.05;5.50;;;20.50;99.90;;;;;;5093121;28;20235;-58
2022/06/05 06:54:03;;;;;;;5.55;5.03;;;20.40;99.90;;;;;;5093800;28;20189;-57
2022/06/05 06:56:30;;;;;;;8.57;5.90;;;20.40;99.90;;;;;;5093669;28;20568;-57
2022/06/05 06:58:58;;;;;;;5.25;4.85;;;20.40;99.90;;;;;;5093340;28;20599;-58
2022/06/05 07:01:24;;;;;;;5.60;5.10;;;20.50;99.90;;;;;;5093196;28;20166;-57
2022/06/05 07:03:49;;;;;;;5.50;4.72;;;20.60;99.90;;;;;;5093244;28;20176;-57
2022/06/05 07:06:16;;;;;;;5.50;5.00;;;20.70;99.90;;;;;;5093220;28;20165;-57
2022/06/05 07:08:43;;;;;;;5.30;4.80;;;20.90;99.90;;;;;;5093007;28;20201;-57
2022/06/05 07:11:10;;;;;;;5.15;4.57;;;20.90;99.90;;;;;;5093007;28;20205;-57
2022/06/05 07:13:36;;;;;;;5.38;4.85;;;21.00;99.90;;;;;;5093103;28;20167;-57
2022/06/05 07:16:05;;;;;;;5.68;5.28;;;21.10;99.90;;;;;;5093302;28;20158;-58
2022/06/05 07:18:30;;;;;;;8.73;4.90;;;21.20;99.90;;;;;;5075164;28;20166;-57
2022/06/05 07:20:56;;;;;;;5.40;4.90;;;21.20;99.90;;;;;;5092892;28;20229;-57
2022/06/05 07:23:21;;;;;;;5.32;4.82;;;21.40;99.90;;;;;;5092784;28;20212;-57
2022/06/05 07:25:49;;;;;;;5.40;4.93;;;21.40;99.90;;;;;;5092762;28;20173;-58
2022/06/05 07:28:16;;;;;;;5.32;4.85;;;21.50;99.90;;;;;;5092828;28;20161;-57
2022/06/05 07:30:45;;;;;;;6.32;4.72;;;21.60;99.90;;;;;;5092679;28;20203;-58
2022/06/05 07:33:11;;;;;;;5.20;4.72;;;21.50;99.90;;;;;;5092665;28;20166;-57
2022/06/05 07:35:37;;;;;;;7.55;5.07;;;21.60;99.90;;;;;;5092645;28;20179;-57
2022/06/05 07:38:02;;;;;;;4.88;4.47;;;21.70;99.90;;;;;;5092911;28;20627;-57
2022/06/05 07:40:28;;;;;;;5.38;4.90;;;21.90;99.90;;;;;;5092799;28;20634;-58
2022/06/05 07:42:54;;;;;;;8.15;5.30;;;21.80;99.90;;;;;;5092503;28;20184;-57
2022/06/05 07:45:19;;;;;;;6.47;4.85;;;21.80;99.90;;;;;;5092414;28;20161;-57
2022/06/05 07:47:45;;;;;;;5.95;4.60;;;21.90;99.90;;;;;;5092448;28;20260;-57
2022/06/05 07:50:14;;;;;;;5.43;4.93;;;21.90;99.90;;;;;;5092563;28;20209;-57
2022/06/05 07:55:25;;;;;;;5.38;4.88;;;21.90;99.90;;;;;;5092641;28;20231;-57
2022/06/05 07:57:50;;;;;;;7.65;5.60;;;21.90;99.90;;;;;;5092263;28;20169;-57
2022/06/05 08:00:17;;;;;;;5.57;5.07;;;21.90;99.90;;;;;;5092541;28;20261;-58
2022/06/05 08:02:42;;;;;;;5.78;5.22;;;22.00;99.90;;;;;;5092176;28;20695;-58
2022/06/05 08:05:09;;;;;;;5.60;5.10;;;22.00;99.90;;;;;;5092402;28;20177;-59
2022/06/05 08:07:34;;;;;;;5.88;5.25;;;21.90;99.90;;;;;;5092315;28;20525;-58
2022/06/05 08:10:01;;;;;;;5.85;5.35;;;21.80;99.90;;;;;;5092352;28;20188;-59
2022/06/05 08:12:31;;;;;;;6.47;5.47;;;21.80;99.90;;;;;;5092126;28;20234;-58
2022/06/05 08:14:57;;;;;;;6.57;5.95;;;21.70;99.90;;;;;;5092340;28;20172;-58
2022/06/05 08:17:28;;;;;;;6.13;5.63;;;21.50;99.90;;;;;;5092013;28;20618;-57
2022/06/05 08:19:54;;;;;;;7.65;5.40;;;21.50;99.90;;;;;;5092040;28;20634;-58
2022/06/05 08:22:22;;;;;;;6.38;5.88;;;21.40;99.90;;;;;;5091929;28;20171;-57
2022/06/05 08:24:48;;;;;;;6.30;5.68;;;21.40;99.90;;;;;;5092079;28;20192;-58
2022/06/05 08:27:24;;;;;;;11.15;9.07;;;21.40;99.90;;;;;;5092191;28;20173;-58
2022/06/05 08:29:55;;;;;;;6.70;6.18;;;21.40;99.90;;;;;;5091818;28;20161;-58
2022/06/05 08:32:22;;;;;;;6.82;6.22;;;21.30;99.90;;;;;;5091721;28;20212;-58
2022/06/05 08:34:48;;;;;;;6.75;6.05;;;21.30;99.90;;;;;;5092060;28;20169;-58
2022/06/05 08:43:10;;;;;;;7.13;6.50;;;21.00;99.90;;;;;;5092110;28;20195;-59
2022/06/05 08:45:49;;;;;;;8.35;6.55;;;20.90;99.90;;;;;;5090960;28;20180;-58
2022/06/05 08:48:27;;;;;;;8.98;7.55;;;20.90;99.90;;;;;;5091476;28;20306;-59
2022/06/05 08:50:59;;;;;;;8.07;7.18;;;20.80;99.90;;;;;;5091768;28;20208;-58
2022/06/05 08:53:46;;;;;;;7.57;6.85;;;20.70;99.90;;;;;;5091347;28;20219;-58
2022/06/05 08:56:21;;;;;;;7.78;7.07;;;20.60;99.90;;;;;;5091409;28;20161;-58
2022/06/05 08:58:53;;;;;;;8.68;7.68;;;20.60;99.90;;;;;;5094681;28;20248;-59
2022/06/05 09:01:39;;;;;;;9.02;8.13;;;20.60;99.90;;;;;;5094952;28;20188;-57
2022/06/05 09:04:17;;;;;;;8.13;7.40;;;20.50;99.90;;;;;;5095105;28;20567;-57
2022/06/05 09:06:50;;;;;;;9.13;8.25;;;20.40;99.90;;;;;;5095137;28;20176;-58
2022/06/05 09:09:24;;;;;;;9.38;7.80;;;20.50;99.90;;;;;;5095026;28;20157;-58
2022/06/05 09:12:06;;;;;;;9.27;8.35;;;20.50;99.90;;;;;;5095266;28;20301;-57
2022/06/05 09:15:07;;;;;;;8.85;8.05;;;20.40;99.90;;;;;;5094988;28;20181;-57
2022/06/05 09:17:33;;;;;;;8.57;7.78;;;20.30;99.90;;;;;;5081030;28;20177;-57
2022/06/05 09:19:59;;;;;;;9.48;8.32;;;20.40;99.90;;;;;;5095322;28;20215;-57
2022/06/05 09:22:48;;;;;;;9.77;8.52;;;20.50;99.90;;;;;;5094849;28;20165;-57
2022/06/05 09:25:30;;;;;;;8.77;7.90;;;20.50;99.90;;;;;;5095041;28;20169;-57
2022/06/05 09:28:29;;;;;;;9.07;7.95;;;20.60;99.90;;;;;;5094242;28;20543;-58
2022/06/05 09:31:13;;;;;;;8.90;8.10;;;20.50;99.90;;;;;;5094728;28;20199;-57
2022/06/05 09:33:40;;;;;;;11.80;8.00;;;20.40;99.90;;;;;;5094631;28;20173;-58
2022/06/05 09:36:13;;;;;;;9.52;8.73;;;20.30;99.90;;;;;;5094446;28;20168;-57
2022/06/05 09:39:01;;;;;;;10.38;9.18;;;20.20;99.90;;;;;;5094683;28;20173;-58
2022/06/05 09:41:48;;;;;;;10.10;9.15;;;20.30;99.90;;;;;;5076371;28;20169;-57
2022/06/05 09:44:24;;;;;;;10.13;8.60;;;20.50;99.90;;;;;;5094288;28;20157;-58
2022/06/05 09:47:00;;;;;;;11.10;9.68;;;20.60;99.90;;;;;;5094434;28;20168;-58
2022/06/05 09:49:36;;;;;;;11.73;9.32;;;20.60;99.90;;;;;;5094661;28;20165;-57
2022/06/05 09:52:14;;;;;;;10.32;9.35;;;20.60;99.90;;;;;;5094452;28;20221;-57
2022/06/05 09:54:44;;;;;;;10.60;8.82;;;20.50;99.90;;;;;;5094374;28;20579;-57
2022/06/05 10:00:37;;;;;;;10.02;9.23;;;20.60;99.90;;;;;;5094610;28;20172;-58
2022/06/05 10:03:12;;;;;;;9.65;8.85;;;20.80;99.90;;;;;;5094627;28;20169;-58
2022/06/05 10:05:45;;;;;;;9.88;9.00;;;20.80;99.90;;;;;;5094189;28;20157;-58
2022/06/05 10:08:23;;;;;;;9.57;8.77;;;20.90;99.90;;;;;;5093274;28;20644;-58
2022/06/05 10:10:57;;;;;;;9.25;8.45;;;21.00;99.90;;;;;;5093976;28;20257;-58
2022/06/05 10:13:42;;;;;;;9.88;8.95;;;21.10;99.90;;;;;;5094183;28;20165;-58
2022/06/05 10:16:17;;;;;;;9.90;9.00;;;21.20;99.90;;;;;;5094042;28;20192;-58
2022/06/05 10:18:50;;;;;;;9.60;8.80;;;21.30;99.90;;;;;;5092970;28;20185;-59
2022/06/05 10:21:20;;;;;;;10.75;9.75;;;21.30;99.90;;;;;;5093917;28;20193;-58
2022/06/05 10:24:08;;;;;;;9.48;8.68;;;21.50;99.90;;;;;;5093888;28;20165;-59
2022/06/05 10:26:45;;;;;;;10.55;8.85;;;21.50;99.90;;;;;;5093616;28;20248;-58
2022/06/05 10:29:28;;;;;;;10.18;9.30;;;21.50;99.90;;;;;;5093660;28;20161;-58
2022/06/05 10:32:00;;;;;;;10.10;9.20;;;21.50;99.90;;;;;;5093010;28;20227;-59
2022/06/05 10:34:41;;;;;;;9.52;8.63;;;21.50;99.90;;;;;;5093730;28;20188;-58
2022/06/05 10:37:33;;;;;;;10.40;9.35;;;21.30;99.90;;;;;;5093307;28;20721;-58
2022/06/05 10:40:24;;;;;;;10.55;8.65;;;21.40;99.90;;;;;;5089779;28;20256;-59
2022/06/05 10:43:01;;;;;;;9.38;8.55;;;21.50;99.90;;;;;;5093608;28;20196;-59
2022/06/05 10:45:39;;;;;;;9.73;8.80;;;21.30;99.90;;;;;;5092523;28;20161;-59
2022/06/05 10:48:04;;;;;;;10.13;9.18;;;21.40;99.90;;;;;;5092608;28;20622;-57
2022/06/05 10:50:43;;;;;;;9.63;8.93;;;21.30;99.90;;;;;;5093280;28;20293;-58
2022/06/05 10:53:28;;;;;;;10.50;9.40;;;21.10;99.90;;;;;;5093273;28;20227;-56
2022/06/05 10:56:05;;;;;;;11.10;10.10;;;21.10;99.90;;;;;;5075145;28;20165;-57
2022/06/05 10:58:38;;;;;;;10.80;9.82;;;21.30;99.90;;;;;;5075164;28;20165;-56
2022/06/05 11:01:12;;;;;;;13.88;12.60;;;21.20;99.90;;;;;;5074487;28;20180;-57
2022/06/05 11:03:59;;;;;;;17.75;15.93;;;21.30;99.90;;;;;;5092081;28;20161;-57
2022/06/05 11:06:47;;;;;;;13.55;12.13;;;21.20;99.90;;;;;;5092013;28;20169;-57
2022/06/05 11:09:43;;;;;;;12.25;11.05;;;21.30;99.90;;;;;;5092012;28;20161;-57
2022/06/05 11:15:57;;;;;;;13.15;11.90;;;21.20;99.90;;;;;;5092759;28;20176;-58
2022/06/05 11:18:41;;;;;;;18.85;15.45;;;21.30;99.90;;;;;;5074655;28;20157;-58
2022/06/05 11:21:07;;;;;;;15.65;14.05;;;21.40;99.90;;;;;;5092443;28;20169;-57
2022/06/05 11:23:37;;;;;;;21.92;18.65;;;21.50;99.90;;;;;;5092940;28;20684;-57
2022/06/05 11:26:36;;;;;;;11.27;10.27;;;21.80;99.90;;;;;;5092924;28;20256;-57
2022/06/05 11:29:18;;;;;;;10.93;9.82;;;22.50;99.90;;;;;;5093134;28;20189;-57
2022/06/05 11:32:08;;;;;;;9.20;8.40;;;23.00;99.90;;;;;;5092632;28;20200;-57
2022/06/05 11:34:45;;;;;;;9.13;8.32;;;23.00;99.90;;;;;;5092676;28;20165;-57
2022/06/05 11:37:20;;;;;;;15.65;14.18;;;23.00;99.90;;;;;;5092644;28;20172;-57
2022/06/05 11:40:11;;;;;;;12.75;11.52;;;23.30;99.90;;;;;;5092615;28;20192;-57
2022/06/05 11:42:49;;;;;;;15.18;13.55;;;23.20;99.90;;;;;;5037358;28;20185;-57
2022/06/05 11:45:27;;;;;;;11.82;10.73;;;23.30;99.90;;;;;;5092555;28;20225;-58
2022/06/05 11:48:18;;;;;;;17.95;13.98;;;23.50;99.90;;;;;;5092538;28;20634;-57
2022/06/05 11:50:52;;;;;;;10.00;9.00;;;23.70;99.90;;;;;;5050978;28;20223;-57
2022/06/05 11:53:31;;;;;;;15.20;12.13;;;24.20;99.90;;;;;;5092212;28;20219;-57
2022/06/05 11:56:22;;;;;;;29.08;22.58;;;24.40;99.90;;;;;;5092347;28;20214;-57
2022/06/05 11:59:15;;;;;;;12.25;10.60;;;24.30;99.90;;;;;;5092349;28;20191;-57
2022/06/05 12:01:45;;;;;;;11.70;10.13;;;24.50;99.90;;;;;;5092315;28;20153;-57
2022/06/05 12:04:28;;;;;;;8.48;7.70;;;24.60;99.90;;;;;;5092312;28;20161;-59
2022/06/05 12:06:59;;;;;;;13.65;10.50;;;24.50;99.90;;;;;;5092270;28;20192;-58
2022/06/05 12:09:47;;;;;;;9.52;8.65;;;24.30;99.90;;;;;;5092143;28;20169;-58
2022/06/05 12:12:36;;;;;;;13.10;11.27;;;24.30;99.90;;;;;;5092115;28;20173;-58
2022/06/05 12:15:45;;;;;;;9.18;8.27;;;24.40;99.90;;;;;;5074374;28;20161;-58
2022/06/05 12:18:21;;;;;;;12.55;10.80;;;24.50;99.90;;;;;;5061173;28;20180;-57
2022/06/05 12:21:19;;;;;;;5.60;5.10;;;25.00;99.90;;;;;;5092028;28;20156;-57
2022/06/05 12:23:45;;;;;;;12.50;10.60;;;24.70;99.90;;;;;;5087893;28;20541;-58
2022/06/05 12:26:22;;;;;;;11.00;9.20;;;24.80;99.90;;;;;;5073849;28;20173;-58
2022/06/05 12:29:00;;;;;;;15.45;11.70;;;24.80;99.90;;;;;;5091928;28;20541;-59
2022/06/05 12:31:35;;;;;;;9.60;7.72;;;24.60;99.90;;;;;;5091777;28;20200;-58
2022/06/05 12:34:11;;;;;;;8.73;7.50;;;25.00;99.90;;;;;;5096751;28;20239;-58
2022/06/05 12:36:41;;;;;;;11.43;9.50;;;24.90;99.90;;;;;;5096064;28;20198;-58
2022/06/05 12:39:22;;;;;;;17.55;13.20;;;24.20;99.90;;;;;;5096340;28;20167;-57
2022/06/05 12:41:51;;;;;;;32.50;24.00;;;24.20;99.90;;;;;;5095951;28;20191;-56
2022/06/05 12:44:42;;;;;;;11.65;9.65;;;24.70;99.90;;;;;;5096201;28;20527;-57
2022/06/05 12:47:07;;;;;;;8.93;7.35;;;24.50;99.90;;;;;;5096216;28;20539;-57
2022/06/05 12:49:45;;;;;;;8.40;7.55;;;24.70;99.90;;;;;;5095799;28;20160;-57
2022/06/05 12:52:42;;;;;;;12.93;9.25;;;24.30;99.90;;;;;;5095532;28;20212;-57
2022/06/05 12:55:34;;;;;;;8.00;7.20;;;24.70;99.90;;;;;;5095998;28;20165;-57
2022/06/05 12:58:04;;;;;;;6.78;5.93;;;24.60;99.90;;;;;;5096019;28;20633;-57
2022/06/05 13:00:56;;;;;;;7.40;6.70;;;24.50;99.90;;;;;;5096019;28;20165;-57
2022/06/05 13:03:49;;;;;;;21.52;13.02;;;24.60;99.90;;;;;;5095606;28;20169;-57
2022/06/05 13:06:44;;;;;;;26.88;16.80;;;24.60;99.90;;;;;;5095546;28;20248;-57
2022/06/05 13:09:39;;;;;;;32.13;17.52;;;24.80;99.90;;;;;;5095542;28;20161;-57
2022/06/05 13:12:26;;;;;;;20.70;12.27;;;24.70;99.90;;;;;;5095355;28;20205;-57
2022/06/05 13:14:56;;;;;;;9.23;7.53;;;24.40;99.90;;;;;;5095356;28;20567;-57
2022/06/05 13:17:33;;;;;;;18.63;15.82;;;24.30;99.90;;;;;;5095278;28;20189;-57
2022/06/05 13:20:27;;;;;;;9.35;8.45;;;24.10;99.90;;;;;;5095880;28;20176;-57
2022/06/05 13:23:09;;;;;;;11.40;10.40;;;24.00;99.90;;;;;;5095256;28;20634;-57
2022/06/05 13:25:44;;;;;;;17.50;15.73;;;24.00;99.90;;;;;;5095211;28;20160;-57
2022/06/05 13:28:22;;;;;;;7.78;7.07;;;23.80;99.90;;;;;;5076963;28;20165;-57
2022/06/05 13:30:56;;;;;;;7.85;7.25;;;23.70;99.90;;;;;;5095108;28;20215;-57
2022/06/05 13:33:41;;;;;;;7.82;7.00;;;23.40;99.90;;;;;;5094997;28;20157;-57
2022/06/05 13:36:15;;;;;;;8.45;7.68;;;23.10;99.90;;;;;;5094915;28;20188;-57